createdAt,value
2023-05-05T00:00:30.255Z,35.38
2023-05-05T00:03:12.828Z,37.30
2023-05-05T00:05:40.679Z,32.47
2023-05-05T00:08:08.484Z,27.55
2023-05-05T00:10:36.783Z,28.08
2023-05-05T00:13:05.092Z,28.98
2023-05-05T00:15:33.100Z,27.77
2023-05-05T00:18:00.464Z,26.58
2023-05-05T00:20:28.213Z,25.98
2023-05-05T00:22:55.363Z,24.75
2023-05-05T00:25:22.943Z,29.42
2023-05-05T00:27:50.739Z,31.80
2023-05-05T00:30:18.620Z,30.33
2023-05-05T00:32:48.825Z,30.95
2023-05-05T00:35:17.979Z,31.80
2023-05-05T00:37:45.254Z,26.40
2023-05-05T00:40:13.416Z,23.95
2023-05-05T00:42:49.287Z,23.73
2023-05-05T00:45:18.453Z,20.70
2023-05-05T00:47:49.103Z,19.90
2023-05-05T00:50:24.626Z,20.45
2023-05-05T00:52:55.255Z,22.00
2023-05-05T00:55:23.861Z,24.85
2023-05-05T00:57:51.342Z,30.63
2023-05-05T01:00:19.100Z,28.52
2023-05-05T01:02:46.377Z,31.33
2023-05-05T01:05:16.522Z,35.10
2023-05-05T01:07:55.481Z,34.20
2023-05-05T01:10:38.608Z,35.10
2023-05-05T01:13:05.764Z,32.60
2023-05-05T01:15:48.742Z,37.60
2023-05-05T01:18:41.794Z,35.45
2023-05-05T01:21:17.168Z,36.50
2023-05-05T01:23:56.521Z,33.90
2023-05-05T01:26:42.920Z,35.50
2023-05-05T01:29:54.510Z,37.20
2023-05-05T01:32:31.906Z,34.65
2023-05-05T01:35:08.432Z,33.08
2023-05-05T01:37:53.410Z,32.03
2023-05-05T01:40:26.202Z,34.50
2023-05-05T01:42:55.942Z,33.28
2023-05-05T01:45:26.745Z,34.95
2023-05-05T01:48:00.279Z,34.35
2023-05-05T01:50:29.351Z,35.67
2023-05-05T01:55:31.178Z,33.05
2023-05-05T01:58:01.362Z,32.80
2023-05-05T02:00:29.371Z,31.63
2023-05-05T02:03:00.129Z,29.65
2023-05-05T02:05:28.613Z,28.67
2023-05-05T02:07:59.172Z,29.15
2023-05-05T02:10:27.872Z,26.00
2023-05-05T02:12:57.274Z,25.98
2023-05-05T02:15:27.335Z,22.77
2023-05-05T02:17:56.342Z,21.30
2023-05-05T02:20:25.005Z,22.92
2023-05-05T02:22:54.056Z,21.90
2023-05-05T02:25:23.885Z,22.02
2023-05-05T02:27:57.107Z,20.67
2023-05-05T02:30:25.597Z,19.88
2023-05-05T02:33:04.840Z,20.05
2023-05-05T02:35:39.224Z,25.30
2023-05-05T02:38:17.525Z,22.42
2023-05-05T02:40:50.022Z,22.17
2023-05-05T02:43:22.072Z,24.42
2023-05-05T02:45:49.541Z,21.00
2023-05-05T02:48:18.386Z,23.05
2023-05-05T02:50:45.623Z,26.60
2023-05-05T02:53:29.493Z,26.85
2023-05-05T02:56:08.182Z,24.83
2023-05-05T02:58:51.172Z,23.95
2023-05-05T03:02:04.492Z,23.00
2023-05-05T03:04:43.030Z,20.17
2023-05-05T03:07:15.955Z,19.38
2023-05-05T03:10:08.822Z,20.63
2023-05-05T03:12:46.991Z,22.13
2023-05-05T03:15:26.648Z,25.13
2023-05-05T03:17:54.807Z,31.00
2023-05-05T03:20:23.232Z,29.55
2023-05-05T03:22:52.072Z,33.33
2023-05-05T03:25:19.668Z,30.98
2023-05-05T03:27:48.017Z,29.58
2023-05-05T03:30:20.455Z,33.28
2023-05-05T03:32:51.095Z,35.05
2023-05-05T03:35:18.750Z,32.35
2023-05-05T03:37:46.135Z,31.85
2023-05-05T03:40:16.485Z,31.73
2023-05-05T03:42:43.843Z,31.08
2023-05-05T03:45:11.559Z,30.85
2023-05-05T03:47:39.976Z,32.17
2023-05-05T03:50:09.024Z,30.50
2023-05-05T03:52:36.723Z,30.45
2023-05-05T03:55:05.237Z,28.48
2023-05-05T03:57:34.276Z,30.35
2023-05-05T04:00:02.018Z,28.52
2023-05-05T04:02:30.477Z,28.33
2023-05-05T04:04:58.236Z,25.52
2023-05-05T04:07:25.869Z,26.40
2023-05-05T04:09:53.699Z,26.83
2023-05-05T04:12:21.055Z,30.42
2023-05-05T04:14:48.635Z,29.20
2023-05-05T04:17:16.422Z,32.40
2023-05-05T04:19:44.653Z,33.50
2023-05-05T04:22:11.897Z,37.53
2023-05-05T04:24:39.737Z,42.85
2023-05-05T04:27:07.237Z,38.85
2023-05-05T04:29:35.701Z,40.40
2023-05-05T04:32:03.369Z,37.85
2023-05-05T04:34:31.217Z,37.28
2023-05-05T04:36:58.599Z,38.88
2023-05-05T04:39:26.456Z,39.55
2023-05-05T04:41:54.064Z,37.25
2023-05-05T04:44:21.737Z,32.83
2023-05-05T04:46:49.290Z,30.38
2023-05-05T04:49:17.022Z,30.20
2023-05-05T04:51:44.866Z,28.83
2023-05-05T04:54:12.566Z,29.77
2023-05-05T04:56:39.842Z,30.52
2023-05-05T04:59:07.838Z,30.95
2023-05-05T05:01:37.730Z,40.35
2023-05-05T05:04:06.116Z,30.83
2023-05-05T05:06:33.599Z,27.45
2023-05-05T05:09:01.071Z,25.55
2023-05-05T05:11:29.324Z,24.33
2023-05-05T05:13:57.026Z,22.70
2023-05-05T05:16:25.458Z,25.63
2023-05-05T05:18:53.466Z,28.35
2023-05-05T05:21:21.269Z,28.40
2023-05-05T05:23:49.275Z,26.70
2023-05-05T05:26:16.880Z,24.65
2023-05-05T05:28:44.890Z,27.15
2023-05-05T05:31:12.671Z,28.48
2023-05-05T05:33:40.332Z,27.67
2023-05-05T05:36:08.170Z,28.33
2023-05-05T05:38:36.535Z,28.52
2023-05-05T05:41:06.865Z,26.33
2023-05-05T05:43:36.033Z,25.23
2023-05-05T05:46:05.031Z,27.27
2023-05-05T05:48:34.236Z,23.90
2023-05-05T05:51:02.660Z,24.30
2023-05-05T05:53:30.439Z,23.90
2023-05-05T05:55:57.772Z,22.88
2023-05-05T05:58:25.637Z,23.50
2023-05-05T06:00:53.124Z,21.17
2023-05-05T06:03:21.239Z,20.98
2023-05-05T06:05:48.542Z,21.33
2023-05-05T06:08:16.490Z,18.25
2023-05-05T06:10:48.510Z,13.68
2023-05-05T06:13:19.617Z,15.45
2023-05-05T06:15:50.102Z,14.90
2023-05-05T06:18:18.685Z,12.93
2023-05-05T06:20:49.549Z,12.55
2023-05-05T06:23:18.607Z,13.27
2023-05-05T06:25:51.800Z,13.63
2023-05-05T06:28:19.546Z,10.68
2023-05-05T06:30:46.780Z,8.75
2023-05-05T06:33:14.461Z,8.40
2023-05-05T06:35:41.698Z,11.18
2023-05-05T06:38:09.947Z,12.15
2023-05-05T06:40:37.058Z,12.32
2023-05-05T06:43:04.861Z,10.30
2023-05-05T06:45:36.877Z,8.85
2023-05-05T06:48:04.764Z,9.48
2023-05-05T06:50:32.262Z,10.55
2023-05-05T06:52:59.861Z,10.38
2023-05-05T06:55:27.403Z,10.75
2023-05-05T06:57:55.264Z,10.65
2023-05-05T07:00:23.260Z,13.95
2023-05-05T07:02:50.793Z,12.65
2023-05-05T07:05:18.609Z,11.63
2023-05-05T07:07:56.666Z,10.52
2023-05-05T08:00:13.715Z,4.80
2023-05-05T08:02:41.861Z,4.10
2023-05-05T08:05:09.812Z,4.13
2023-05-05T08:07:41.671Z,4.72
2023-05-05T08:10:11.059Z,4.53
2023-05-05T08:12:39.103Z,4.03
2023-05-05T08:15:07.160Z,4.05
2023-05-05T08:17:49.504Z,4.18
2023-05-05T08:20:21.638Z,4.25
2023-05-05T08:22:49.916Z,5.05
2023-05-05T08:25:17.131Z,3.63
2023-05-05T08:27:45.142Z,4.18
2023-05-05T08:30:12.614Z,4.43
2023-05-05T08:32:40.621Z,5.70
2023-05-05T08:35:08.692Z,4.80
2023-05-05T08:37:36.653Z,4.00
2023-05-05T08:40:04.740Z,4.10
2023-05-05T08:42:37.073Z,3.50
2023-05-05T08:45:10.663Z,4.60
2023-05-05T08:47:42.468Z,3.88
2023-05-05T08:50:11.662Z,4.15
2023-05-05T08:52:44.125Z,4.15
2023-05-05T08:55:18.153Z,4.00
2023-05-05T08:57:55.167Z,3.22
2023-05-05T09:00:23.386Z,3.47
2023-05-05T09:02:51.389Z,3.60
2023-05-05T09:05:18.908Z,3.00
2023-05-05T09:07:47.616Z,3.25
2023-05-05T09:10:15.707Z,2.92
2023-05-05T09:12:43.829Z,2.35
2023-05-05T09:15:15.196Z,2.70
2023-05-05T09:17:43.841Z,2.47
2023-05-05T09:20:13.430Z,3.15
2023-05-05T09:22:46.958Z,2.72
2023-05-05T09:25:16.907Z,2.28
2023-05-05T09:27:49.417Z,2.88
2023-05-05T09:30:23.528Z,2.67
2023-05-05T09:32:54.159Z,2.05
2023-05-05T09:35:23.386Z,2.50
2023-05-05T09:37:51.817Z,2.65
2023-05-05T09:40:20.820Z,2.53
2023-05-05T09:42:48.966Z,2.50
2023-05-05T09:45:19.526Z,2.30
2023-05-05T09:47:49.477Z,1.98
2023-05-05T09:50:20.761Z,2.40
2023-05-05T09:53:02.319Z,2.72
2023-05-05T09:55:34.296Z,2.63
2023-05-05T09:58:20.399Z,2.33
2023-05-05T10:00:48.603Z,2.08
2023-05-05T10:03:17.966Z,3.05
2023-05-05T10:05:54.960Z,1.63
2023-05-05T10:08:24.850Z,2.00
2023-05-05T10:10:55.281Z,2.05
2023-05-05T10:13:25.181Z,2.08
2023-05-05T10:15:54.364Z,2.00
2023-05-05T10:18:27.185Z,2.92
2023-05-05T10:21:00.057Z,2.22
2023-05-05T10:23:50.968Z,2.10
2023-05-05T10:26:20.290Z,2.00
2023-05-05T10:28:51.853Z,2.10
2023-05-05T10:31:41.931Z,1.35
2023-05-05T10:34:11.362Z,1.60
2023-05-05T10:36:39.602Z,1.35
2023-05-05T10:39:09.580Z,1.10
2023-05-05T10:41:38.038Z,1.10
2023-05-05T10:44:06.946Z,0.95
2023-05-05T10:46:34.226Z,0.65
2023-05-05T10:49:19.026Z,1.10
2023-05-05T10:51:54.568Z,1.50
2023-05-05T10:57:05.036Z,1.67
2023-05-05T10:59:39.052Z,1.47
2023-05-05T11:02:28.433Z,1.52
2023-05-05T11:05:21.759Z,1.80
2023-05-05T11:07:51.709Z,1.80
2023-05-05T11:10:21.284Z,1.50
2023-05-05T11:13:03.400Z,1.70
2023-05-05T11:15:30.899Z,1.35
2023-05-05T11:18:05.699Z,1.42
2023-05-05T11:20:37.725Z,1.50
2023-05-05T11:23:08.174Z,1.30
2023-05-05T11:25:41.575Z,1.75
2023-05-05T11:28:12.830Z,1.50
2023-05-05T11:30:56.137Z,1.65
2023-05-05T11:33:37.393Z,1.67
2023-05-05T11:36:18.833Z,1.70
2023-05-05T11:39:27.688Z,1.50
2023-05-05T11:41:58.233Z,1.63
2023-05-05T11:44:33.647Z,1.20
2023-05-05T11:47:04.526Z,1.48
2023-05-05T11:49:36.603Z,1.17
2023-05-05T11:52:12.601Z,1.67
2023-05-05T11:54:51.602Z,1.20
2023-05-05T11:57:21.914Z,1.50
2023-05-05T11:59:51.259Z,1.35
2023-05-05T12:02:20.128Z,1.15
2023-05-05T12:04:48.150Z,1.50
2023-05-05T12:07:17.197Z,1.10
2023-05-05T12:09:45.993Z,1.10
2023-05-05T12:12:14.682Z,1.30
2023-05-05T12:14:52.098Z,1.45
2023-05-05T12:17:21.637Z,1.40
2023-05-05T12:19:53.004Z,1.60
2023-05-05T12:22:22.837Z,1.75
2023-05-05T12:24:55.096Z,1.10
2023-05-05T12:27:23.362Z,1.17
2023-05-05T12:29:51.712Z,1.10
2023-05-05T12:32:27.965Z,1.30
2023-05-05T12:34:57.740Z,1.00
2023-05-05T12:37:27.709Z,1.23
2023-05-05T12:39:57.792Z,1.20
2023-05-05T12:42:25.515Z,1.48
2023-05-05T12:44:53.161Z,1.40
2023-05-05T12:47:32.262Z,1.58
2023-05-05T12:50:00.808Z,1.60
2023-05-05T12:52:44.954Z,1.70
2023-05-05T12:55:13.525Z,1.63
2023-05-05T12:58:01.625Z,1.55
2023-05-05T13:00:29.497Z,1.63
2023-05-05T13:02:58.241Z,1.70
2023-05-05T13:05:33.516Z,1.77
2023-05-05T13:08:02.256Z,2.03
2023-05-05T13:10:32.617Z,1.58
2023-05-05T13:13:00.639Z,1.67
2023-05-05T13:15:30.804Z,1.70
2023-05-05T13:18:01.463Z,2.00
2023-05-05T13:20:28.970Z,1.88
2023-05-05T13:22:57.461Z,2.10
2023-05-05T13:25:24.849Z,1.95
2023-05-05T13:27:52.524Z,1.88
2023-05-05T13:30:20.933Z,1.67
2023-05-05T13:32:48.514Z,2.00
2023-05-05T13:35:16.699Z,1.95
2023-05-05T13:37:46.260Z,2.15
2023-05-05T13:40:14.286Z,1.55
2023-05-05T13:42:42.792Z,1.70
2023-05-05T13:45:11.045Z,2.28
2023-05-05T13:47:38.766Z,2.00
2023-05-05T13:50:07.488Z,1.70
2023-05-05T13:52:35.026Z,2.05
2023-05-05T13:55:02.952Z,2.10
2023-05-05T13:57:30.553Z,1.88
2023-05-05T13:59:57.682Z,2.03
2023-05-05T14:02:25.349Z,2.28
2023-05-05T14:04:52.784Z,1.80
2023-05-05T14:07:20.440Z,2.30
2023-05-05T14:09:47.771Z,2.30
2023-05-05T14:12:17.350Z,1.95
2023-05-05T14:14:45.032Z,2.10
2023-05-05T14:17:12.997Z,2.03
2023-05-05T14:19:41.115Z,2.95
2023-05-05T14:22:08.586Z,1.80
2023-05-05T14:24:36.386Z,1.88
2023-05-05T14:27:04.916Z,1.88
2023-05-05T14:29:32.811Z,1.90
2023-05-05T14:32:00.699Z,2.15
2023-05-05T14:34:28.280Z,1.90
2023-05-05T14:36:55.574Z,2.25
2023-05-05T14:39:23.785Z,2.10
2023-05-05T14:41:51.287Z,1.60
2023-05-05T14:44:19.034Z,2.03
2023-05-05T14:46:46.858Z,2.05
2023-05-05T14:49:16.126Z,2.15
2023-05-05T14:51:44.187Z,2.05
2023-05-05T14:54:24.300Z,2.33
2023-05-05T14:56:55.656Z,2.00
2023-05-05T14:59:23.314Z,2.38
2023-05-05T15:01:51.098Z,2.33
2023-05-05T15:04:18.779Z,2.22
2023-05-05T15:06:46.229Z,2.13
2023-05-05T15:09:13.834Z,2.10
2023-05-05T15:11:45.506Z,1.85
2023-05-05T15:14:13.070Z,1.90
2023-05-05T15:16:40.424Z,2.00
2023-05-05T15:19:08.034Z,1.80
2023-05-05T15:21:35.215Z,2.03
2023-05-05T15:24:02.882Z,1.80
2023-05-05T15:26:30.096Z,2.28
2023-05-05T15:28:57.633Z,2.72
2023-05-05T15:31:24.930Z,2.35
2023-05-05T15:33:52.530Z,2.35
2023-05-05T15:36:22.810Z,1.60
2023-05-05T15:38:50.383Z,2.45
2023-05-05T15:41:17.676Z,1.83
2023-05-05T15:43:45.376Z,2.28
2023-05-05T15:46:12.617Z,1.70
2023-05-05T15:48:40.267Z,1.70
2023-05-05T15:51:07.457Z,2.42
2023-05-05T15:53:35.163Z,2.78
2023-05-05T15:56:02.840Z,2.15
2023-05-05T15:58:30.420Z,2.25
2023-05-05T16:00:57.665Z,2.25
2023-05-05T16:03:25.294Z,2.95
2023-05-05T16:05:52.685Z,2.60
2023-05-05T16:08:20.209Z,13.50
2023-05-05T16:10:47.416Z,3.25
2023-05-05T16:13:15.333Z,3.28
2023-05-05T16:15:42.727Z,2.88
2023-05-05T16:18:10.441Z,2.80
2023-05-05T16:20:37.824Z,2.83
2023-05-05T16:23:05.675Z,4.15
2023-05-05T16:25:32.996Z,2.92
2023-05-05T16:28:01.825Z,3.45
2023-05-05T16:30:29.547Z,4.60
2023-05-05T16:32:57.075Z,4.47
2023-05-05T16:35:24.313Z,2.80
2023-05-05T16:37:52.723Z,3.10
2023-05-05T16:40:20.075Z,2.45
2023-05-05T16:42:47.953Z,2.38
2023-05-05T16:45:15.161Z,2.45
2023-05-05T16:47:42.738Z,2.67
2023-05-05T16:50:10.259Z,2.63
2023-05-05T16:52:37.904Z,2.55
2023-05-05T16:55:05.978Z,4.03
2023-05-05T16:57:33.784Z,4.75
2023-05-05T17:00:01.046Z,8.23
2023-05-05T17:02:28.627Z,7.40
2023-05-05T17:04:55.910Z,7.90
2023-05-05T17:07:23.561Z,7.07
2023-05-05T17:09:51.245Z,6.32
2023-05-05T17:12:18.887Z,5.95
2023-05-05T17:21:25.137Z,5.50
2023-05-05T17:23:52.664Z,5.43
2023-05-05T17:26:19.908Z,4.82
2023-05-05T17:28:47.438Z,3.45
2023-05-05T17:31:14.847Z,3.30
2023-05-05T17:33:42.519Z,3.65
2023-05-05T17:36:10.148Z,3.42
2023-05-05T17:38:37.863Z,3.20
2023-05-05T17:41:05.110Z,3.25
2023-05-05T17:43:32.677Z,4.20
2023-05-05T17:45:59.993Z,3.85
2023-05-05T17:48:27.918Z,3.17
2023-05-05T17:50:55.338Z,3.45
2023-05-05T17:53:23.678Z,4.30
2023-05-05T17:55:50.959Z,3.13
2023-05-05T17:58:18.587Z,3.95
2023-05-05T18:00:46.662Z,3.90
2023-05-05T18:03:14.784Z,4.30
2023-05-05T18:05:42.289Z,4.68
2023-05-05T18:08:09.905Z,6.63
2023-05-05T18:10:37.376Z,11.50
2023-05-05T18:13:05.129Z,8.32
2023-05-05T18:15:32.458Z,12.82
2023-05-05T18:18:00.491Z,19.10
2023-05-05T18:20:27.785Z,25.13
2023-05-05T18:22:55.712Z,16.05
2023-05-05T18:25:23.691Z,18.60
2023-05-05T18:27:51.376Z,17.58
2023-05-05T18:30:18.712Z,10.30
2023-05-05T18:32:46.490Z,10.05
2023-05-05T18:35:14.656Z,8.57
2023-05-05T18:37:42.833Z,5.57
2023-05-05T18:40:10.849Z,6.18
2023-05-05T18:42:38.593Z,14.18
2023-05-05T18:45:07.559Z,19.65
2023-05-05T18:47:39.166Z,15.73
2023-05-05T18:50:08.648Z,12.90
2023-05-05T18:52:38.098Z,11.48
2023-05-05T18:55:05.813Z,11.27
2023-05-05T18:57:33.371Z,10.75
2023-05-05T19:00:01.258Z,19.48
2023-05-05T19:02:28.963Z,16.88
2023-05-05T19:04:56.423Z,15.32
2023-05-05T19:07:34.409Z,16.83
2023-05-05T19:10:04.947Z,21.15
2023-05-05T19:12:33.813Z,27.15
2023-05-05T19:15:01.475Z,31.10
2023-05-05T19:17:29.223Z,33.00
2023-05-05T19:19:57.984Z,33.00
2023-05-05T19:22:25.830Z,37.78
2023-05-05T19:24:53.109Z,45.08
2023-05-05T19:27:20.685Z,42.05
2023-05-05T19:29:52.335Z,43.13
2023-05-05T19:32:21.245Z,41.88
2023-05-05T19:34:48.977Z,43.50
2023-05-05T19:37:16.718Z,40.95
2023-05-05T19:39:45.880Z,31.23
2023-05-05T19:42:13.963Z,30.13
2023-05-05T19:44:41.184Z,28.05
2023-05-05T19:47:10.880Z,25.23
2023-05-05T19:49:38.458Z,24.00
2023-05-05T19:52:06.173Z,23.77
2023-05-05T19:54:33.477Z,25.15
2023-05-05T19:57:01.062Z,23.65
2023-05-05T19:59:28.345Z,20.73
2023-05-05T20:01:55.986Z,13.70
2023-05-05T20:04:23.353Z,11.48
2023-05-05T20:06:51.189Z,8.23
2023-05-05T20:09:18.820Z,7.38
2023-05-05T20:11:49.250Z,8.00
2023-05-05T20:14:16.524Z,7.47
2023-05-05T20:16:46.660Z,10.00
2023-05-05T20:19:14.090Z,9.70
2023-05-05T20:21:41.866Z,13.80
2023-05-05T20:24:10.631Z,16.67
2023-05-05T20:26:41.574Z,18.17
2023-05-05T20:29:08.820Z,17.15
2023-05-05T20:31:36.551Z,17.13
2023-05-05T20:34:04.027Z,17.77
2023-05-05T20:36:32.070Z,17.67
2023-05-05T20:38:59.503Z,16.20
2023-05-05T20:41:27.177Z,15.98
2023-05-05T20:43:54.449Z,17.73
2023-05-05T20:46:22.000Z,20.60
2023-05-05T20:48:49.305Z,16.92
2023-05-05T20:51:17.204Z,15.70
2023-05-05T20:53:44.403Z,15.82
2023-05-05T20:56:11.951Z,18.52
2023-05-05T20:58:39.085Z,21.92
2023-05-05T21:01:06.789Z,28.63
2023-05-05T21:03:34.237Z,26.35
2023-05-05T21:06:02.132Z,26.10
2023-05-05T21:08:30.268Z,25.00
2023-05-05T21:10:57.802Z,18.75
2023-05-05T21:13:25.266Z,19.30
2023-05-05T21:15:52.880Z,20.23
2023-05-05T21:18:20.350Z,17.55
2023-05-05T21:20:47.908Z,16.52
2023-05-05T21:23:15.120Z,17.27
2023-05-05T21:25:42.812Z,17.33
2023-05-05T21:28:10.126Z,18.15
2023-05-05T21:30:38.320Z,17.20
2023-05-05T21:33:05.573Z,18.90
2023-05-05T21:35:33.248Z,17.17
2023-05-05T21:38:00.756Z,19.92
2023-05-05T21:40:28.366Z,21.50
2023-05-05T21:42:55.748Z,21.77
2023-05-05T21:45:23.741Z,22.58
2023-05-05T21:47:51.106Z,20.63
2023-05-05T21:50:18.705Z,21.30
2023-05-05T21:52:45.936Z,25.27
2023-05-05T21:55:13.528Z,23.75
2023-05-05T21:57:40.726Z,24.80
2023-05-05T22:00:09.324Z,25.80
2023-05-05T22:02:45.665Z,24.63
2023-05-05T22:05:13.489Z,27.48
2023-05-05T22:07:40.909Z,26.08
2023-05-05T22:10:09.347Z,26.85
2023-05-05T22:12:39.341Z,25.40
2023-05-05T22:15:08.670Z,24.17
2023-05-05T22:17:36.448Z,26.42
2023-05-05T22:20:09.390Z,26.17
2023-05-05T22:22:36.864Z,23.73
2023-05-05T22:25:05.314Z,22.35
2023-05-05T22:27:32.556Z,24.88
2023-05-05T22:30:00.221Z,23.73
2023-05-05T22:32:27.471Z,25.27
2023-05-05T22:34:55.107Z,24.50
2023-05-05T22:37:22.769Z,24.27
2023-05-05T22:39:50.448Z,22.67
2023-05-05T22:42:17.624Z,18.30
2023-05-05T22:44:45.271Z,23.50
2023-05-05T22:47:14.977Z,22.27
2023-05-05T22:49:42.735Z,22.90
2023-05-05T22:52:09.960Z,20.13
2023-05-05T22:54:37.424Z,20.63
2023-05-05T22:57:04.606Z,19.85
2023-05-05T22:59:32.268Z,18.90
2023-05-05T23:01:59.481Z,18.15
2023-05-05T23:04:27.000Z,21.23
2023-05-05T23:06:55.283Z,18.67
2023-05-05T23:09:24.344Z,16.35
2023-05-05T23:11:51.450Z,13.63
2023-05-05T23:14:19.735Z,13.75
2023-05-05T23:16:47.026Z,13.80
2023-05-05T23:19:17.812Z,12.95
2023-05-05T23:21:52.612Z,12.85
2023-05-05T23:26:49.172Z,12.57
2023-05-05T23:29:16.676Z,14.43
2023-05-05T23:31:43.877Z,13.30
2023-05-05T23:34:11.641Z,14.18
2023-05-05T23:36:38.780Z,13.43
2023-05-05T23:39:06.538Z,13.80
2023-05-05T23:41:33.837Z,14.50
2023-05-05T23:44:01.407Z,13.82
2023-05-05T23:46:29.406Z,13.20
2023-05-05T23:49:00.164Z,12.98
2023-05-05T23:51:27.850Z,13.80
2023-05-05T23:53:57.341Z,14.90
2023-05-05T23:56:24.780Z,12.80
2023-05-05T23:58:53.580Z,12.80
